sensor_id;sensor_type;location;lat;lon;timestamp;pressure;altitude;pressure_sealevel;temperature;humidity
66857;BME280;53766;50.280;19.160;2023-04-09T00:01:34;99076.72;;;17.06;49.45
66857;BME280;53766;50.280;19.160;2023-04-09T00:04:02;99069.38;;;17.08;49.39
66857;BME280;53766;50.280;19.160;2023-04-09T00:06:29;99066.72;;;17.08;49.32
66857;BME280;53766;50.280;19.160;2023-04-09T00:08:57;99071.22;;;17.08;49.31
66857;BME280;53766;50.280;19.160;2023-04-09T00:11:24;99074.69;;;17.08;49.43
66857;BME280;53766;50.280;19.160;2023-04-09T00:13:53;99068.72;;;17.06;49.43
66857;BME280;53766;50.280;19.160;2023-04-09T00:16:20;99069.56;;;17.06;49.33
66857;BME280;53766;50.280;19.160;2023-04-09T00:18:48;99076.72;;;17.06;49.43
66857;BME280;53766;50.280;19.160;2023-04-09T00:21:15;99070.38;;;17.07;49.37
66857;BME280;53766;50.280;19.160;2023-04-09T00:23:43;99076.72;;;17.06;49.30
66857;BME280;53766;50.280;19.160;2023-04-09T00:26:10;99075.69;;;17.07;49.36
66857;BME280;53766;50.280;19.160;2023-04-09T00:28:38;99079.38;;;17.06;49.42
66857;BME280;53766;50.280;19.160;2023-04-09T00:31:05;99082.84;;;17.06;49.49
66857;BME280;53766;50.280;19.160;2023-04-09T00:33:33;99083.06;;;17.05;49.43
66857;BME280;53766;50.280;19.160;2023-04-09T00:36:01;99091.66;;;17.07;49.21
66857;BME280;53766;50.280;19.160;2023-04-09T00:38:28;99085.53;;;17.06;49.32
66857;BME280;53766;50.280;19.160;2023-04-09T00:40:55;99090.84;;;17.06;49.36
66857;BME280;53766;50.280;19.160;2023-04-09T00:43:23;99087.34;;;17.06;49.23
66857;BME280;53766;50.280;19.160;2023-04-09T00:45:50;99093.34;;;17.08;49.31
66857;BME280;53766;50.280;19.160;2023-04-09T00:48:18;99088.38;;;17.05;49.33
66857;BME280;53766;50.280;19.160;2023-04-09T00:50:46;99093.50;;;17.06;49.31
66857;BME280;53766;50.280;19.160;2023-04-09T00:53:14;99086.72;;;17.04;49.27
66857;BME280;53766;50.280;19.160;2023-04-09T00:55:42;99085.72;;;17.05;49.14
66857;BME280;53766;50.280;19.160;2023-04-09T00:58:10;99081.22;;;17.05;49.12
66857;BME280;53766;50.280;19.160;2023-04-09T01:00:37;99077.72;;;17.05;49.11
66857;BME280;53766;50.280;19.160;2023-04-09T01:03:05;99073.22;;;17.05;49.61
66857;BME280;53766;50.280;19.160;2023-04-09T01:08:31;99071.38;;;17.06;49.17
66857;BME280;53766;50.280;19.160;2023-04-09T01:11:08;99075.06;;;17.05;49.15
66857;BME280;53766;50.280;19.160;2023-04-09T01:13:54;99078.56;;;17.05;49.11
66857;BME280;53766;50.280;19.160;2023-04-09T01:16:23;99073.22;;;17.05;49.21
66857;BME280;53766;50.280;19.160;2023-04-09T01:19:00;99074.88;;;17.06;49.15
66857;BME280;53766;50.280;19.160;2023-04-09T01:21:30;99077.72;;;17.05;49.19
66857;BME280;53766;50.280;19.160;2023-04-09T01:24:15;99072.41;;;17.05;49.07
66857;BME280;53766;50.280;19.160;2023-04-09T01:27:03;99083.88;;;17.05;49.13
66857;BME280;53766;50.280;19.160;2023-04-09T01:29:38;99079.38;;;17.06;49.10
66857;BME280;53766;50.280;19.160;2023-04-09T01:32:08;99079.38;;;17.06;49.03
66857;BME280;53766;50.280;19.160;2023-04-09T01:34:36;99077.72;;;17.05;48.98
66857;BME280;53766;50.280;19.160;2023-04-09T01:37:05;99081.22;;;17.05;49.13
66857;BME280;53766;50.280;19.160;2023-04-09T01:39:35;99083.88;;;17.05;49.10
66857;BME280;53766;50.280;19.160;2023-04-09T01:42:04;99086.72;;;17.04;49.17
66857;BME280;53766;50.280;19.160;2023-04-09T01:44:38;99084.03;;;17.04;49.17
66857;BME280;53766;50.280;19.160;2023-04-09T01:47:07;99090.38;;;17.03;48.99
66857;BME280;53766;50.280;19.160;2023-04-09T01:49:36;99086.53;;;17.05;49.00
66857;BME280;53766;50.280;19.160;2023-04-09T01:52:06;99087.72;;;17.03;49.12
66857;BME280;53766;50.280;19.160;2023-04-09T01:54:34;99091.22;;;17.03;49.04
66857;BME280;53766;50.280;19.160;2023-04-09T01:57:01;99085.06;;;17.03;49.11
66857;BME280;53766;50.280;19.160;2023-04-09T01:59:28;99086.72;;;17.04;49.01
66857;BME280;53766;50.280;19.160;2023-04-09T02:02:05;99082.41;;;17.03;49.08
66857;BME280;53766;50.280;19.160;2023-04-09T02:04:39;99083.41;;;17.02;49.02
66857;BME280;53766;50.280;19.160;2023-04-09T02:07:36;99083.41;;;17.02;48.91
66857;BME280;53766;50.280;19.160;2023-04-09T02:10:05;99078.06;;;17.02;48.95
66857;BME280;53766;50.280;19.160;2023-04-09T02:12:39;99087.91;;;17.01;49.04
66857;BME280;53766;50.280;19.160;2023-04-09T02:15:09;99081.56;;;17.02;48.88
66857;BME280;53766;50.280;19.160;2023-04-09T02:17:37;99080.75;;;17.02;48.98
66857;BME280;53766;50.280;19.160;2023-04-09T02:20:05;99087.06;;;17.01;49.01
66857;BME280;53766;50.280;19.160;2023-04-09T02:22:33;99079.91;;;17.01;48.95
66857;BME280;53766;50.280;19.160;2023-04-09T02:25:01;99085.25;;;17.01;49.04
66857;BME280;53766;50.280;19.160;2023-04-09T02:27:28;99081.75;;;17.01;48.92
66857;BME280;53766;50.280;19.160;2023-04-09T02:29:56;99080.91;;;17.00;48.99
66857;BME280;53766;50.280;19.160;2023-04-09T02:32:23;99088.06;;;17.00;48.84
66857;BME280;53766;50.280;19.160;2023-04-09T02:34:51;99090.72;;;17.00;48.90
66857;BME280;53766;50.280;19.160;2023-04-09T02:37:18;99092.41;;;17.01;48.91
66857;BME280;53766;50.280;19.160;2023-04-09T02:39:46;99086.22;;;17.00;49.01
66857;BME280;53766;50.280;19.160;2023-04-09T02:42:14;99093.22;;;17.01;48.78
66857;BME280;53766;50.280;19.160;2023-04-09T02:44:42;99087.06;;;17.01;48.83
66857;BME280;53766;50.280;19.160;2023-04-09T02:47:10;99071.28;;;16.99;48.81
66857;BME280;53766;50.280;19.160;2023-04-09T02:49:37;99086.22;;;17.00;48.89
66857;BME280;53766;50.280;19.160;2023-04-09T02:52:05;99084.59;;;16.99;48.84
66857;BME280;53766;50.280;19.160;2023-04-09T02:54:32;99091.75;;;16.99;48.97
66857;BME280;53766;50.280;19.160;2023-04-09T02:57:00;99089.09;;;16.99;48.84
66857;BME280;53766;50.280;19.160;2023-04-09T02:59:27;99082.91;;;16.98;48.89
66857;BME280;53766;50.280;19.160;2023-04-09T03:01:55;99084.75;;;16.98;48.93
66857;BME280;53766;50.280;19.160;2023-04-09T03:04:22;99081.94;;;16.99;48.83
66857;BME280;53766;50.280;19.160;2023-04-09T03:06:50;99081.09;;;16.99;48.91
66857;BME280;53766;50.280;19.160;2023-04-09T03:09:17;99080.09;;;17.00;48.98
66857;BME280;53766;50.280;19.160;2023-04-09T03:11:45;99089.91;;;16.99;48.83
66857;BME280;53766;50.280;19.160;2023-04-09T03:14:12;99078.44;;;16.99;48.79
66857;BME280;53766;50.280;19.160;2023-04-09T03:16:40;99082.09;;;16.98;48.82
66857;BME280;53766;50.280;19.160;2023-04-09T03:19:07;99085.78;;;16.97;48.82
66857;BME280;53766;50.280;19.160;2023-04-09T03:21:35;99087.41;;;16.98;48.77
66857;BME280;53766;50.280;19.160;2023-04-09T03:24:04;99087.41;;;16.98;48.78
66857;BME280;53766;50.280;19.160;2023-04-09T03:26:31;99086.78;;;16.96;48.87
66857;BME280;53766;50.280;19.160;2023-04-09T03:29:03;99091.09;;;16.97;48.83
66857;BME280;53766;50.280;19.160;2023-04-09T03:31:31;99084.97;;;16.96;48.74
66857;BME280;53766;50.280;19.160;2023-04-09T03:33:59;99082.09;;;16.98;48.79
66857;BME280;53766;50.280;19.160;2023-04-09T03:36:26;99080.47;;;16.97;48.67
66857;BME280;53766;50.280;19.160;2023-04-09T03:38:54;99075.13;;;16.97;48.71
66857;BME280;53766;50.280;19.160;2023-04-09T03:41:21;99086.59;;;16.97;48.83
66857;BME280;53766;50.280;19.160;2023-04-09T03:43:49;99082.47;;;16.95;48.72
66857;BME280;53766;50.280;19.160;2023-04-09T03:46:17;99084.97;;;16.96;48.66
66857;BME280;53766;50.280;19.160;2023-04-09T03:48:44;99092.09;;;16.96;48.67
66857;BME280;53766;50.280;19.160;2023-04-09T03:51:13;99090.28;;;16.96;48.67
66857;BME280;53766;50.280;19.160;2023-04-09T03:53:41;99083.28;;;16.95;48.81
66857;BME280;53766;50.280;19.160;2023-04-09T03:56:09;99090.44;;;16.95;48.81
66857;BME280;53766;50.280;19.160;2023-04-09T03:58:37;99088.59;;;16.95;48.63
66857;BME280;53766;50.280;19.160;2023-04-09T04:01:05;99102.72;;;16.96;48.69
66857;BME280;53766;50.280;19.160;2023-04-09T04:03:33;99097.63;;;16.94;48.83
66857;BME280;53766;50.280;19.160;2023-04-09T04:06:01;99094.75;;;16.96;48.71
66857;BME280;53766;50.280;19.160;2023-04-09T04:08:29;99094.75;;;16.96;48.66
66857;BME280;53766;50.280;19.160;2023-04-09T04:11:02;99095.13;;;16.93;48.59
66857;BME280;53766;50.280;19.160;2023-04-09T04:13:31;99092.47;;;16.93;48.78
66857;BME280;53766;50.280;19.160;2023-04-09T04:15:58;99093.28;;;16.93;48.66
66857;BME280;53766;50.280;19.160;2023-04-09T04:18:26;99090.63;;;16.93;48.66
66857;BME280;53766;50.280;19.160;2023-04-09T04:20:53;99084.47;;;16.93;48.62
66857;BME280;53766;50.280;19.160;2023-04-09T04:23:21;99085.28;;;16.93;48.62
66857;BME280;53766;50.280;19.160;2023-04-09T04:25:48;99085.28;;;16.93;48.64
66857;BME280;53766;50.280;19.160;2023-04-09T04:28:16;99103.09;;;16.93;48.66
66857;BME280;53766;50.280;19.160;2023-04-09T04:30:43;99092.63;;;16.91;48.64
66857;BME280;53766;50.280;19.160;2023-04-09T04:33:11;99088.97;;;16.92;48.63
66857;BME280;53766;50.280;19.160;2023-04-09T04:35:38;99077.47;;;16.92;48.55
66857;BME280;53766;50.280;19.160;2023-04-09T04:38:06;99085.28;;;16.93;48.59
66857;BME280;53766;50.280;19.160;2023-04-09T04:40:33;99087.13;;;16.93;48.64
66857;BME280;53766;50.280;19.160;2023-04-09T04:43:01;99089.81;;;16.93;48.49
66857;BME280;53766;50.280;19.160;2023-04-09T04:45:28;99089.81;;;16.93;48.63
66857;BME280;53766;50.280;19.160;2023-04-09T04:47:56;99095.94;;;16.93;48.58
66857;BME280;53766;50.280;19.160;2023-04-09T04:50:23;99104.09;;;16.92;48.53
66857;BME280;53766;50.280;19.160;2023-04-09T04:52:51;99105.75;;;16.93;48.55
66857;BME280;53766;50.280;19.160;2023-04-09T04:55:19;99104.94;;;16.92;48.52
66857;BME280;53766;50.280;19.160;2023-04-09T04:57:49;99104.94;;;16.92;48.47
66857;BME280;53766;50.280;19.160;2023-04-09T05:00:16;99107.41;;;16.94;48.62
66857;BME280;53766;50.280;19.160;2023-04-09T05:02:45;99113.75;;;16.93;48.53
66857;BME280;53766;50.280;19.160;2023-04-09T05:05:12;99109.41;;;16.92;48.58
66857;BME280;53766;50.280;19.160;2023-04-09T05:07:40;99113.75;;;16.93;48.54
66857;BME280;53766;50.280;19.160;2023-04-09T05:10:08;99112.72;;;16.94;48.44
66857;BME280;53766;50.280;19.160;2023-04-09T05:12:36;99107.41;;;16.94;48.44
66857;BME280;53766;50.280;19.160;2023-04-09T05:15:04;99115.59;;;16.92;48.51
66857;BME280;53766;50.280;19.160;2023-04-09T05:17:32;99114.56;;;16.93;48.52
66857;BME280;53766;50.280;19.160;2023-04-09T05:20:00;99120.06;;;16.92;48.50
66857;BME280;53766;50.280;19.160;2023-04-09T05:22:28;99114.72;;;16.92;48.47
66857;BME280;53766;50.280;19.160;2023-04-09T05:24:55;99117.41;;;16.92;48.47
66857;BME280;53766;50.280;19.160;2023-04-09T05:27:23;99114.72;;;16.92;48.46
66857;BME280;53766;50.280;19.160;2023-04-09T05:29:52;99111.09;;;16.93;48.45
66857;BME280;53766;50.280;19.160;2023-04-09T05:32:19;99111.09;;;16.93;48.51
66857;BME280;53766;50.280;19.160;2023-04-09T05:34:47;99119.72;;;16.95;48.39
66857;BME280;53766;50.280;19.160;2023-04-09T05:37:15;99127.03;;;16.93;48.35
66857;BME280;53766;50.280;19.160;2023-04-09T05:39:42;99129.72;;;16.93;48.29
66857;BME280;53766;50.280;19.160;2023-04-09T05:42:10;99127.03;;;16.93;48.39
66857;BME280;53766;50.280;19.160;2023-04-09T05:44:37;99130.38;;;16.95;48.29
66857;BME280;53766;50.280;19.160;2023-04-09T05:47:05;99128.69;;;16.94;48.24
66857;BME280;53766;50.280;19.160;2023-04-09T05:49:33;99128.69;;;16.94;48.33
66857;BME280;53766;50.280;19.160;2023-04-09T05:52:00;99125.22;;;16.93;48.30
66857;BME280;53766;50.280;19.160;2023-04-09T05:54:28;99128.03;;;16.92;48.41
66857;BME280;53766;50.280;19.160;2023-04-09T05:56:55;99136.88;;;16.92;48.41
66857;BME280;53766;50.280;19.160;2023-04-09T05:59:23;99132.38;;;16.93;48.60
66857;BME280;53766;50.280;19.160;2023-04-09T06:01:50;99132.38;;;16.93;48.49
66857;BME280;53766;50.280;19.160;2023-04-09T06:04:18;99131.34;;;16.94;48.71
66857;BME280;53766;50.280;19.160;2023-04-09T06:06:46;99129.72;;;16.93;48.88
66857;BME280;53766;50.280;19.160;2023-04-09T06:09:13;99133.03;;;16.95;48.99
66857;BME280;53766;50.280;19.160;2023-04-09T06:11:41;99133.03;;;16.95;49.01
66857;BME280;53766;50.280;19.160;2023-04-09T06:14:09;99141.81;;;16.95;49.11
66857;BME280;53766;50.280;19.160;2023-04-09T06:16:38;99142.66;;;16.96;49.29
66857;BME280;53766;50.280;19.160;2023-04-09T06:19:06;99141.00;;;16.95;49.48
66857;BME280;53766;50.280;19.160;2023-04-09T06:21:33;99141.00;;;16.95;49.41
66857;BME280;53766;50.280;19.160;2023-04-09T06:24:01;99137.31;;;16.96;49.61
66857;BME280;53766;50.280;19.160;2023-04-09T06:26:28;99139.97;;;16.96;49.65
66857;BME280;53766;50.280;19.160;2023-04-09T06:28:56;99144.31;;;16.97;49.74
66857;BME280;53766;50.280;19.160;2023-04-09T06:31:24;99149.63;;;16.97;49.78
66857;BME280;53766;50.280;19.160;2023-04-09T06:33:52;99149.63;;;16.97;49.83
66857;BME280;53766;50.280;19.160;2023-04-09T06:36:19;99153.94;;;16.98;49.80
66857;BME280;53766;50.280;19.160;2023-04-09T06:38:48;99150.47;;;16.97;49.89
66857;BME280;53766;50.280;19.160;2023-04-09T06:41:15;99159.91;;;17.00;49.98
66857;BME280;53766;50.280;19.160;2023-04-09T06:43:43;99155.41;;;17.00;49.85
66857;BME280;53766;50.280;19.160;2023-04-09T06:46:10;99160.72;;;17.00;50.06
66857;BME280;53766;50.280;19.160;2023-04-09T06:48:38;99156.28;;;17.01;49.91
66857;BME280;53766;50.280;19.160;2023-04-09T06:51:06;99162.56;;;17.00;50.04
66857;BME280;53766;50.280;19.160;2023-04-09T06:53:33;99162.03;;;17.04;49.96
66857;BME280;53766;50.280;19.160;2023-04-09T06:56:01;99159.59;;;17.03;49.85
66857;BME280;53766;50.280;19.160;2023-04-09T06:58:28;99162.25;;;17.03;49.88
66857;BME280;53766;50.280;19.160;2023-04-09T07:00:56;99165.56;;;17.05;50.02
66857;BME280;53766;50.280;19.160;2023-04-09T07:03:24;99166.38;;;17.05;50.04
66857;BME280;53766;50.280;19.160;2023-04-09T07:05:54;99168.22;;;17.05;49.92
66857;BME280;53766;50.280;19.160;2023-04-09T07:08:22;99178.88;;;17.05;49.91
66857;BME280;53766;50.280;19.160;2023-04-09T07:10:50;99176.81;;;17.07;49.88
66857;BME280;53766;50.280;19.160;2023-04-09T07:13:17;99180.50;;;17.06;49.88
66857;BME280;53766;50.280;19.160;2023-04-09T07:15:46;99176.19;;;17.05;49.83
66857;BME280;53766;50.280;19.160;2023-04-09T07:18:13;99175.19;;;17.06;49.88
66857;BME280;53766;50.280;19.160;2023-04-09T07:20:41;99177.69;;;17.08;49.79
66857;BME280;53766;50.280;19.160;2023-04-09T07:23:08;99175.19;;;17.06;49.76
66857;BME280;53766;50.280;19.160;2023-04-09T07:25:36;99174.16;;;17.07;49.62
66857;BME280;53766;50.280;19.160;2023-04-09T07:28:04;99169.84;;;17.06;49.55
66857;BME280;53766;50.280;19.160;2023-04-09T07:30:31;99174.34;;;17.05;49.66
66857;BME280;53766;50.280;19.160;2023-04-09T07:32:59;99171.50;;;17.07;49.60
66857;BME280;53766;50.280;19.160;2023-04-09T07:35:27;99176.00;;;17.06;49.64
66857;BME280;53766;50.280;19.160;2023-04-09T07:37:54;99174.16;;;17.07;49.46
66857;BME280;53766;50.280;19.160;2023-04-09T07:40:22;99168.84;;;17.07;49.65
66857;BME280;53766;50.280;19.160;2023-04-09T07:42:49;99173.16;;;17.08;49.42
66857;BME280;53766;50.280;19.160;2023-04-09T07:45:17;99171.50;;;17.07;49.51
66857;BME280;53766;50.280;19.160;2023-04-09T07:47:44;99160.84;;;17.07;49.36
66857;BME280;53766;50.280;19.160;2023-04-09T07:50:12;99171.50;;;17.07;49.45
66857;BME280;53766;50.280;19.160;2023-04-09T07:52:39;99176.81;;;17.07;49.44
66857;BME280;53766;50.280;19.160;2023-04-09T07:55:08;99180.50;;;17.06;49.45
66857;BME280;53766;50.280;19.160;2023-04-09T07:57:37;99171.50;;;17.07;49.58
66857;BME280;53766;50.280;19.160;2023-04-09T08:00:05;99174.81;;;17.09;49.62
66857;BME280;53766;50.280;19.160;2023-04-09T08:02:32;99180.13;;;17.09;49.48
66857;BME280;53766;50.280;19.160;2023-04-09T08:05:01;99188.13;;;17.09;49.56
66857;BME280;53766;50.280;19.160;2023-04-09T08:07:28;99180.13;;;17.09;49.38
66857;BME280;53766;50.280;19.160;2023-04-09T08:09:56;99186.47;;;17.08;49.43
66857;BME280;53766;50.280;19.160;2023-04-09T08:12:24;99182.16;;;17.07;49.35
66857;BME280;53766;50.280;19.160;2023-04-09T08:14:51;99186.47;;;17.08;49.24
66857;BME280;53766;50.280;19.160;2023-04-09T08:17:19;99189.31;;;17.06;49.32
66857;BME280;53766;50.280;19.160;2023-04-09T08:19:46;99194.63;;;17.06;49.22
66857;BME280;53766;50.280;19.160;2023-04-09T08:22:15;99194.84;;;17.05;49.17
66857;BME280;53766;50.280;19.160;2023-04-09T08:24:43;99201.78;;;17.06;49.15
66857;BME280;53766;50.280;19.160;2023-04-09T08:27:10;99194.84;;;17.05;49.34
66857;BME280;53766;50.280;19.160;2023-04-09T08:29:38;99193.16;;;17.04;49.29
66857;BME280;53766;50.280;19.160;2023-04-09T08:32:06;99202.97;;;17.03;49.33
66857;BME280;53766;50.280;19.160;2023-04-09T08:34:34;99203.81;;;17.04;49.30
66857;BME280;53766;50.280;19.160;2023-04-09T08:37:02;99200.16;;;17.05;49.41
66857;BME280;53766;50.280;19.160;2023-04-09T08:39:30;99209.13;;;17.04;49.39
66857;BME280;53766;50.280;19.160;2023-04-09T08:41:58;99204.63;;;17.04;49.43
66857;BME280;53766;50.280;19.160;2023-04-09T08:44:28;99202.97;;;17.03;49.36
66857;BME280;53766;50.280;19.160;2023-04-09T08:46:58;99210.16;;;17.03;49.41
66857;BME280;53766;50.280;19.160;2023-04-09T08:49:26;99202.97;;;17.03;49.37
66857;BME280;53766;50.280;19.160;2023-04-09T08:51:53;99201.13;;;17.04;49.42
66857;BME280;53766;50.280;19.160;2023-04-09T08:54:21;99202.16;;;17.03;49.42
66857;BME280;53766;50.280;19.160;2023-04-09T08:56:49;99202.97;;;17.03;49.37
66857;BME280;53766;50.280;19.160;2023-04-09T08:59:17;99195.00;;;17.03;49.38
66857;BME280;53766;50.280;19.160;2023-04-09T09:01:44;99196.84;;;17.03;49.38
66857;BME280;53766;50.280;19.160;2023-04-09T09:04:14;99199.50;;;17.03;49.19
66857;BME280;53766;50.280;19.160;2023-04-09T09:06:41;99196.84;;;17.03;49.38
66857;BME280;53766;50.280;19.160;2023-04-09T09:09:11;99194.34;;;17.01;49.53
66857;BME280;53766;50.280;19.160;2023-04-09T09:11:43;99198.66;;;17.02;49.33
66857;BME280;53766;50.280;19.160;2023-04-09T09:14:14;99200.50;;;17.02;49.35
66857;BME280;53766;50.280;19.160;2023-04-09T09:16:45;99195.16;;;17.02;49.37
66857;BME280;53766;50.280;19.160;2023-04-09T09:19:32;99200.31;;;17.03;49.18
66857;BME280;53766;50.280;19.160;2023-04-09T09:22:04;99202.97;;;17.03;49.40
66857;BME280;53766;50.280;19.160;2023-04-09T09:24:33;99197.81;;;17.02;49.32
66857;BME280;53766;50.280;19.160;2023-04-09T09:27:01;99200.50;;;17.02;49.27
66857;BME280;53766;50.280;19.160;2023-04-09T09:29:29;99203.16;;;17.02;49.29
66857;BME280;53766;50.280;19.160;2023-04-09T09:31:56;99211.13;;;17.02;49.31
66857;BME280;53766;50.280;19.160;2023-04-09T09:34:24;99203.81;;;17.04;49.39
66857;BME280;53766;50.280;19.160;2023-04-09T09:36:52;99207.47;;;17.03;49.37
66857;BME280;53766;50.280;19.160;2023-04-09T09:39:19;99207.47;;;17.03;49.37
66857;BME280;53766;50.280;19.160;2023-04-09T09:42:05;99198.47;;;17.04;49.43
66857;BME280;53766;50.280;19.160;2023-04-09T09:44:33;99213.63;;;17.03;49.66
66857;BME280;53766;50.280;19.160;2023-04-09T09:47:03;99207.47;;;17.03;49.65
66857;BME280;53766;50.280;19.160;2023-04-09T09:49:31;99206.63;;;17.02;49.60
66857;BME280;53766;50.280;19.160;2023-04-09T09:51:59;99207.47;;;17.03;49.65
66857;BME280;53766;50.280;19.160;2023-04-09T09:54:41;99202.16;;;17.03;49.79
66857;BME280;53766;50.280;19.160;2023-04-09T09:57:09;99204.63;;;17.04;49.79
66857;BME280;53766;50.280;19.160;2023-04-09T09:59:43;99196.47;;;17.06;49.69
66857;BME280;53766;50.280;19.160;2023-04-09T10:02:22;99199.13;;;17.06;49.76
66857;BME280;53766;50.280;19.160;2023-04-09T10:04:51;99195.66;;;17.05;49.68
66857;BME280;53766;50.280;19.160;2023-04-09T10:07:19;99202.63;;;17.06;49.66
66857;BME280;53766;50.280;19.160;2023-04-09T10:09:49;99198.13;;;17.07;49.78
66857;BME280;53766;50.280;19.160;2023-04-09T10:12:20;99198.13;;;17.07;49.80
66857;BME280;53766;50.280;19.160;2023-04-09T10:14:52;99198.13;;;17.07;49.76
66857;BME280;53766;50.280;19.160;2023-04-09T10:17:21;99194.47;;;17.08;49.94
66857;BME280;53766;50.280;19.160;2023-04-09T10:20:18;99190.78;;;17.09;49.89
66857;BME280;53766;50.280;19.160;2023-04-09T10:22:49;99196.09;;;17.09;49.71
66857;BME280;53766;50.280;19.160;2023-04-09T10:25:19;99190.78;;;17.09;49.92
66857;BME280;53766;50.280;19.160;2023-04-09T10:28:14;99187.13;;;17.10;49.78
66857;BME280;53766;50.280;19.160;2023-04-09T10:30:43;99186.13;;;17.11;49.81
66857;BME280;53766;50.280;19.160;2023-04-09T10:33:15;99182.78;;;17.09;49.64
66857;BME280;53766;50.280;19.160;2023-04-09T10:35:45;99175.47;;;17.11;49.66
66857;BME280;53766;50.280;19.160;2023-04-09T10:38:14;99172.81;;;17.11;49.81
66857;BME280;53766;50.280;19.160;2023-04-09T10:40:47;99170.13;;;17.11;49.56
66857;BME280;53766;50.280;19.160;2023-04-09T10:43:18;99172.81;;;17.11;49.61
66857;BME280;53766;50.280;19.160;2023-04-09T10:45:49;99172.81;;;17.11;49.72
66857;BME280;53766;50.280;19.160;2023-04-09T10:48:19;99174.47;;;17.12;49.66
66857;BME280;53766;50.280;19.160;2023-04-09T10:50:49;99172.47;;;17.14;49.43
66857;BME280;53766;50.280;19.160;2023-04-09T10:53:22;99167.78;;;17.16;49.56
66857;BME280;53766;50.280;19.160;2023-04-09T10:55:52;99170.47;;;17.16;49.46
66857;BME280;53766;50.280;19.160;2023-04-09T10:58:20;99174.94;;;17.16;49.50
66857;BME280;53766;50.280;19.160;2023-04-09T11:00:49;99165.13;;;17.16;49.43
66857;BME280;53766;50.280;19.160;2023-04-09T11:03:24;99172.09;;;17.17;49.43
66857;BME280;53766;50.280;19.160;2023-04-09T11:06:05;99159.44;;;17.19;49.34
66857;BME280;53766;50.280;19.160;2023-04-09T11:08:36;99161.13;;;17.20;49.29
66857;BME280;53766;50.280;19.160;2023-04-09T11:11:05;99164.44;;;17.22;49.19
66857;BME280;53766;50.280;19.160;2023-04-09T11:13:32;99164.44;;;17.22;49.16
66857;BME280;53766;50.280;19.160;2023-04-09T11:16:00;99169.56;;;17.24;49.11
66857;BME280;53766;50.280;19.160;2023-04-09T11:18:33;99164.06;;;17.25;49.12
66857;BME280;53766;50.280;19.160;2023-04-09T11:21:02;99163.22;;;17.25;49.28
66857;BME280;53766;50.280;19.160;2023-04-09T11:23:31;99164.72;;;17.27;49.22
66857;BME280;53766;50.280;19.160;2023-04-09T11:25:59;99162.69;;;17.30;49.14
66857;BME280;53766;50.280;19.160;2023-04-09T11:28:27;99167.00;;;17.31;49.25
66857;BME280;53766;50.280;19.160;2023-04-09T11:30:55;99163.34;;;17.32;49.12
66857;BME280;53766;50.280;19.160;2023-04-09T11:33:30;99165.00;;;17.33;49.24
66857;BME280;53766;50.280;19.160;2023-04-09T11:35:58;99160.31;;;17.35;49.09
66857;BME280;53766;50.280;19.160;2023-04-09T11:38:25;99168.13;;;17.36;49.10
66857;BME280;53766;50.280;19.160;2023-04-09T11:40:56;99160.63;;;17.40;48.84
66857;BME280;53766;50.280;19.160;2023-04-09T11:43:23;99159.78;;;17.39;48.92
66857;BME280;53766;50.280;19.160;2023-04-09T11:45:51;99159.78;;;17.39;49.05
66857;BME280;53766;50.280;19.160;2023-04-09T11:48:19;99157.59;;;17.43;48.94
66857;BME280;53766;50.280;19.160;2023-04-09T11:50:49;99156.56;;;17.44;48.90
66857;BME280;53766;50.280;19.160;2023-04-09T11:53:17;99161.06;;;17.43;48.91
66857;BME280;53766;50.280;19.160;2023-04-09T11:55:50;99156.56;;;17.44;49.00
66857;BME280;53766;50.280;19.160;2023-04-09T11:58:21;99161.72;;;17.45;48.96
66857;BME280;53766;50.280;19.160;2023-04-09T12:00:52;99158.25;;;17.45;48.93
66857;BME280;53766;50.280;19.160;2023-04-09T12:03:27;99160.72;;;17.46;48.92
66857;BME280;53766;50.280;19.160;2023-04-09T12:05:59;99158.72;;;17.48;48.80
66857;BME280;53766;50.280;19.160;2023-04-09T12:08:27;99163.84;;;17.50;48.62
66857;BME280;53766;50.280;19.160;2023-04-09T12:10:55;99160.34;;;17.50;48.86
66857;BME280;53766;50.280;19.160;2023-04-09T12:13:31;99158.34;;;17.52;48.84
66857;BME280;53766;50.280;19.160;2023-04-09T12:16:00;99158.34;;;17.52;48.90
66857;BME280;53766;50.280;19.160;2023-04-09T12:18:27;99159.16;;;17.52;48.87
66857;BME280;53766;50.280;19.160;2023-04-09T12:20:55;99159.97;;;17.53;48.69
66857;BME280;53766;50.280;19.160;2023-04-09T12:23:22;99158.16;;;17.53;48.73
66857;BME280;53766;50.280;19.160;2023-04-09T12:25:50;99158.16;;;17.53;48.77
66857;BME280;53766;50.280;19.160;2023-04-09T12:28:17;99148.50;;;17.52;48.77
66857;BME280;53766;50.280;19.160;2023-04-09T12:30:45;99155.50;;;17.53;48.65
66857;BME280;53766;50.280;19.160;2023-04-09T12:33:14;99159.00;;;17.54;48.85
66857;BME280;53766;50.280;19.160;2023-04-09T12:35:41;99151.16;;;17.52;48.86
66857;BME280;53766;50.280;19.160;2023-04-09T12:38:09;99148.50;;;17.52;48.78
66857;BME280;53766;50.280;19.160;2023-04-09T12:40:37;99150.19;;;17.53;48.83
66857;BME280;53766;50.280;19.160;2023-04-09T12:43:05;99150.19;;;17.53;48.85
66857;BME280;53766;50.280;19.160;2023-04-09T12:45:32;99144.84;;;17.53;48.83
66857;BME280;53766;50.280;19.160;2023-04-09T12:48:00;99144.84;;;17.53;48.75
66857;BME280;53766;50.280;19.160;2023-04-09T12:50:28;99152.63;;;17.55;48.63
66857;BME280;53766;50.280;19.160;2023-04-09T12:52:55;99136.88;;;17.53;48.77
66857;BME280;53766;50.280;19.160;2023-04-09T12:55:23;99143.19;;;17.52;48.69
66857;BME280;53766;50.280;19.160;2023-04-09T12:57:50;99139.53;;;17.53;48.85
66857;BME280;53766;50.280;19.160;2023-04-09T13:00:18;99137.03;;;17.52;48.73
66857;BME280;53766;50.280;19.160;2023-04-09T13:02:45;99137.84;;;17.52;48.92